Time;durP1;ratioP1;P1;durP2;ratioP2;P2;SDS_P1;SDS_P2;PMS_P1;PMS_P2;Temp;Humidity;BMP_temperature;BMP_pressure;BME280_temperature;BME280_humidity;BME280_pressure;Samples;Min_cycle;Max_cycle;Signal;HPM_P1;HPM_P2
2021/07/16 00:00:11;;;;;;;23.20;16.08;;;;;;;21.62;76.87;99376.69;5034750;28;20136;-8
2021/07/16 00:02:39;;;;;;;21.13;16.10;;;;;;;21.56;77.50;99375.25;5016974;28;20041;-8
2021/07/16 00:05:07;;;;;;;22.10;17.08;;;;;;;21.46;77.48;99374.91;5016914;28;20040;-8
2021/07/16 00:07:34;;;;;;;21.88;15.05;;;;;;;21.60;77.10;99383.88;5017219;28;20064;-8
2021/07/16 00:10:00;;;;;;;20.75;15.23;;;;;;;21.73;76.65;99379.56;5033961;28;20041;-8
2021/07/16 00:12:27;;;;;;;17.67;13.25;;;;;;;21.80;76.51;99388.03;5000492;28;20510;-8
2021/07/16 00:14:53;;;;;;;23.42;13.73;;;;;;;22.13;75.49;99394.88;5017523;28;20045;-9
2021/07/16 00:17:19;;;;;;;20.55;14.82;;;;;;;22.05;75.91;99378.53;5000526;28;20039;-9
2021/07/16 00:19:45;;;;;;;21.40;15.73;;;;;;;21.91;75.92;99382.88;5033530;28;20491;-8
2021/07/16 00:22:12;;;;;;;18.25;15.15;;;;;;;21.73;76.08;99368.91;5000788;28;20037;-8
2021/07/16 00:24:38;;;;;;;19.48;15.13;;;;;;;21.80;75.79;99372.06;5032923;28;20046;-8
2021/07/16 00:27:05;;;;;;;18.63;14.77;;;;;;;21.86;76.45;99387.63;5016539;28;20465;-8
2021/07/16 00:29:32;;;;;;;21.45;14.73;;;;;;;21.87;75.83;99376.03;5016463;28;20041;-8
2021/07/16 00:31:58;;;;;;;21.15;14.60;;;;;;;21.77;75.97;99372.22;5016474;28;20503;-8
2021/07/16 00:34:25;;;;;;;18.65;14.30;;;;;;;21.75;76.13;99379.47;5016273;28;20045;-8
2021/07/16 00:36:51;;;;;;;18.83;13.68;;;;;;;21.81;76.06;99373.75;5032604;28;20053;-8
2021/07/16 00:39:17;;;;;;;22.13;14.93;;;;;;;21.63;76.50;99365.94;5034322;28;20044;-8
2021/07/16 00:41:43;;;;;;;18.58;14.93;;;;;;;21.56;76.54;99353.97;5016373;28;20479;-8
2021/07/16 00:44:12;;;;;;;18.40;14.30;;;;;;;21.76;76.12;99366.06;5033912;28;20560;-8
2021/07/16 00:46:39;;;;;;;20.80;14.32;;;;;;;21.89;75.96;99366.16;5032676;28;20107;-8
2021/07/16 00:49:05;;;;;;;19.85;14.98;;;;;;;21.86;76.22;99371.66;5033750;28;20475;-8
2021/07/16 00:51:32;;;;;;;19.63;15.43;;;;;;;21.74;76.68;99356.47;5015903;28;20033;-8
2021/07/16 00:53:58;;;;;;;18.80;13.23;;;;;;;21.86;76.08;99347.72;5032654;28;20053;-8
2021/07/16 00:56:25;;;;;;;15.73;13.32;;;;;;;22.00;75.42;99348.69;5032405;28;20506;-8
2021/07/16 00:58:52;;;;;;;17.75;13.50;;;;;;;22.38;74.20;99362.25;5032457;28;20045;-8
2021/07/16 01:01:19;;;;;;;17.45;13.13;;;;;;;22.42;73.96;99363.81;5015851;28;20041;-8
2021/07/16 01:03:46;;;;;;;19.35;13.68;;;;;;;22.40;74.26;99371.03;5032181;28;20091;-8
2021/07/16 01:06:12;;;;;;;17.90;13.48;;;;;;;22.31;73.91;99369.75;5048965;28;20125;-8
2021/07/16 01:08:38;;;;;;;20.30;12.85;;;;;;;22.25;74.67;99369.28;5032169;28;20041;-8
2021/07/16 01:11:05;;;;;;;17.20;12.23;;;;;;;22.16;75.06;99365.38;5048268;28;20052;-8
2021/07/16 01:13:31;;;;;;;21.58;14.20;;;;;;;21.89;76.01;99359.97;4999220;28;20049;-9
2021/07/16 01:15:57;;;;;;;21.67;14.52;;;;;;;21.85;76.45;99369.09;5015628;28;20489;-9
2021/07/16 01:18:24;;;;;;;19.38;14.20;;;;;;;21.84;75.92;99354.06;5032124;28;20080;-9
2021/07/16 01:20:50;;;;;;;18.10;13.13;;;;;;;21.91;75.97;99377.56;5032635;28;20560;-9
2021/07/16 01:23:24;;;;;;;22.55;14.40;;;;;;;21.68;77.32;99378.97;5033009;28;20095;-8
2021/07/16 01:25:52;;;;;;;18.42;12.50;;;;;;;21.63;77.06;99349.16;5032443;28;20048;-8
2021/07/16 01:28:19;;;;;;;21.90;13.27;;;;;;;21.73;77.27;99352.97;5015413;28;20045;-8
2021/07/16 01:30:47;;;;;;;16.23;12.95;;;;;;;21.72;76.75;99351.25;5031875;28;20099;-8
2021/07/16 01:33:14;;;;;;;22.50;15.70;;;;;;;21.70;77.06;99365.59;5015851;28;20049;-8
2021/07/16 01:35:41;;;;;;;22.30;15.02;;;;;;;21.78;77.21;99365.97;4999526;28;20042;-7
2021/07/16 01:38:07;;;;;;;20.30;14.68;;;;;;;21.62;77.37;99356.25;5015057;28;20144;-7
2021/07/16 01:40:37;;;;;;;23.38;15.07;;;;;;;21.60;77.72;99371.47;5048265;28;20394;-7
2021/07/16 01:43:06;;;;;;;23.63;13.33;;;;;;;21.54;77.20;99336.38;5015220;28;20033;-8
2021/07/16 01:45:38;;;;;;;14.52;10.80;;;;;;;21.74;76.24;99354.66;5031544;28;20120;-8
2021/07/16 01:48:10;;;;;;;21.13;13.82;;;;;;;21.83;76.08;99357.72;5031826;28;20047;-8
2021/07/16 01:50:38;;;;;;;20.80;15.13;;;;;;;21.69;76.63;99347.91;5031541;28;20042;-8
2021/07/16 01:53:04;;;;;;;17.08;12.50;;;;;;;21.92;75.41;99349.16;5031302;28;20041;-7
2021/07/16 01:55:33;;;;;;;17.25;13.85;;;;;;;21.94;74.76;99358.75;5014881;28;20037;-7
2021/07/16 01:58:01;;;;;;;11.85;10.30;;;;;;;22.28;73.43;99346.00;4998638;28;20045;-7
2021/07/16 02:00:34;;;;;;;16.98;11.93;;;;;;;22.58;72.95;99361.00;5014833;28;20045;-8
2021/07/16 02:03:04;;;;;;;16.02;13.15;;;;;;;22.70;72.53;99355.84;5031332;28;20045;-8
2021/07/16 02:05:30;;;;;;;18.35;13.10;;;;;;;22.88;71.69;99348.44;5031364;28;20041;-8
2021/07/16 02:08:04;;;;;;;15.52;12.23;;;;;;;22.87;71.34;99347.59;5031239;28;20037;-8
2021/07/16 02:10:31;;;;;;;14.50;10.70;;;;;;;22.82;71.61;99360.38;5031641;28;20406;-8
2021/07/16 02:12:59;;;;;;;15.18;11.18;;;;;;;23.07;71.42;99364.91;5031185;28;20041;-8
2021/07/16 02:15:31;;;;;;;15.13;12.55;;;;;;;23.06;71.05;99359.69;4998406;28;20420;-8
2021/07/16 02:17:59;;;;;;;16.65;12.82;;;;;;;23.01;71.37;99364.47;5047988;28;20509;-8
2021/07/16 02:20:32;;;;;;;14.40;11.50;;;;;;;22.84;71.25;99355.81;5048372;28;20045;-8
2021/07/16 02:23:02;;;;;;;16.75;14.02;;;;;;;22.68;72.09;99352.41;5033549;28;20037;-8
2021/07/16 02:25:29;;;;;;;17.63;13.43;;;;;;;22.58;72.53;99358.34;5035269;28;20461;-8
2021/07/16 02:28:08;;;;;;;18.48;13.20;;;;;;;22.45;73.01;99347.63;5018743;28;20136;-8
2021/07/16 02:30:34;;;;;;;18.20;12.32;;;;;;;22.46;72.91;99357.31;5035196;28;20487;-8
2021/07/16 02:33:02;;;;;;;18.48;12.45;;;;;;;22.46;73.24;99357.31;5035719;28;20045;-8
2021/07/16 02:35:30;;;;;;;20.98;13.93;;;;;;;22.51;73.40;99367.66;5018493;28;20130;-8
2021/07/16 02:37:58;;;;;;;18.85;14.38;;;;;;;22.22;74.20;99351.69;5034812;28;20110;-8
2021/07/16 02:40:25;;;;;;;21.80;13.45;;;;;;;22.05;74.18;99346.59;5002453;28;20497;-8
2021/07/16 02:42:51;;;;;;;16.85;12.18;;;;;;;22.12;74.72;99363.88;5034641;28;20431;-8
2021/07/16 02:45:21;;;;;;;17.15;13.57;;;;;;;22.22;74.41;99356.19;5034930;28;20033;-8
2021/07/16 02:47:48;;;;;;;15.65;12.73;;;;;;;22.06;74.47;99342.97;5034797;28;20469;-8
2021/07/16 02:50:20;;;;;;;19.42;13.35;;;;;;;21.93;74.91;99356.19;5036322;28;20045;-8
2021/07/16 02:52:46;;;;;;;;;;;;;;;22.31;74.31;99375.09;5034974;28;20469;-8
2021/07/16 02:55:12;;;;;;;16.27;12.40;;;;;;;22.57;72.19;99342.47;5013909;28;19925;-8
2021/07/16 02:57:39;;;;;;;16.25;12.38;;;;;;;22.69;72.51;99346.16;4998579;28;20531;-9
2021/07/16 03:00:10;;;;;;;17.92;13.25;;;;;;;22.75;72.18;99349.25;4998511;28;20049;-9
2021/07/16 03:02:41;;;;;;;18.95;14.23;;;;;;;22.50;72.96;99360.63;5015815;28;20034;-8
2021/07/16 03:05:16;;;;;;;20.73;14.50;;;;;;;22.41;73.17;99351.44;4998539;28;20575;-8
2021/07/16 03:07:42;;;;;;;20.45;14.90;;;;;;;22.39;73.32;99371.13;5025560;28;20041;-8
2021/07/16 03:10:14;;;;;;;17.17;13.25;;;;;;;22.59;72.96;99376.03;5034432;28;20091;-8
2021/07/16 03:12:41;;;;;;;22.38;14.48;;;;;;;22.76;72.65;99363.41;5001666;28;20069;-9
2021/07/16 03:15:11;;;;;;;18.90;13.75;;;;;;;22.82;72.47;99367.53;5034318;28;20077;-9
2021/07/16 03:17:39;;;;;;;15.50;11.52;;;;;;;22.76;71.66;99364.28;5034744;28;20033;-9
2021/07/16 03:20:08;;;;;;;19.45;12.93;;;;;;;22.82;72.04;99373.69;5018505;28;20077;-9
2021/07/16 03:22:35;;;;;;;16.63;14.40;;;;;;;22.68;72.38;99377.25;5001473;28;20045;-9
2021/07/16 03:25:02;;;;;;;18.45;14.10;;;;;;;22.53;72.90;99363.13;5034060;28;20033;-9
2021/07/16 03:27:28;;;;;;;20.95;15.65;;;;;;;22.35;73.88;99364.25;5034091;28;20045;-8
2021/07/16 03:29:54;;;;;;;21.30;15.60;;;;;;;22.15;74.21;99363.72;5035358;28;20116;-8
2021/07/16 03:32:22;;;;;;;22.35;15.23;;;;;;;22.35;74.05;99378.41;5018002;28;20038;-8
2021/07/16 03:34:48;;;;;;;24.05;16.13;;;;;;;22.33;73.90;99379.47;5033802;28;20053;-8
2021/07/16 03:37:15;;;;;;;20.52;14.55;;;;;;;22.44;72.87;99364.53;5033594;28;20068;-8
2021/07/16 03:39:42;;;;;;;14.02;11.65;;;;;;;22.49;73.01;99358.94;5035380;28;20120;-8
2021/07/16 03:42:09;;;;;;;17.25;12.90;;;;;;;22.91;72.35;99385.56;5035370;28;20437;-8
2021/07/16 03:44:35;;;;;;;24.25;15.25;;;;;;;22.74;72.46;99373.34;5034445;28;20072;-8
2021/07/16 03:47:01;;;;;;;19.27;14.38;;;;;;;22.63;73.58;99374.88;5017298;28;20044;-8
2021/07/16 03:49:28;;;;;;;17.38;13.48;;;;;;;22.65;73.60;99388.09;5033676;28;20045;-8
2021/07/16 03:51:55;;;;;;;14.57;11.80;;;;;;;22.59;73.59;99381.38;5017182;28;20041;-8
2021/07/16 03:54:22;;;;;;;21.17;15.43;;;;;;;22.74;73.19;99389.34;5033618;28;20417;-9
2021/07/16 03:56:48;;;;;;;20.63;15.65;;;;;;;22.71;73.93;99386.84;5000724;28;20037;-8
2021/07/16 03:59:15;;;;;;;16.25;11.90;;;;;;;22.76;72.84;99384.75;5050666;28;20549;-8
2021/07/16 04:01:41;;;;;;;21.85;14.90;;;;;;;22.78;72.55;99364.19;5034728;28;20064;-8
2021/07/16 04:04:08;;;;;;;25.17;15.38;;;;;;;22.96;72.89;99394.13;5017012;28;20486;-8
2021/07/16 04:06:34;;;;;;;22.27;15.98;;;;;;;22.84;72.83;99382.44;5050231;28;20048;-8
2021/07/16 04:09:20;;;;;;;18.92;14.85;;;;;;;22.79;73.03;99371.25;5033361;28;20041;-8
2021/07/16 04:11:47;;;;;;;18.42;13.95;;;;;;;22.92;72.86;99389.94;5016844;28;20088;-8
2021/07/16 04:14:13;;;;;;;20.80;13.60;;;;;;;23.12;71.79;99376.13;5016735;28;20140;-9
2021/07/16 04:16:39;;;;;;;21.30;15.25;;;;;;;23.17;72.33;99385.69;5033215;28;20037;-8
2021/07/16 04:19:06;;;;;;;21.90;15.80;;;;;;;23.01;72.43;99360.03;5016641;28;20072;-8
2021/07/16 04:21:32;;;;;;;22.52;15.05;;;;;;;23.35;72.18;99394.25;5016863;28;20092;-8
2021/07/16 04:23:59;;;;;;;22.13;15.95;;;;;;;23.36;71.54;99377.31;5016417;28;20111;-8
2021/07/16 04:26:25;;;;;;;25.35;15.40;;;;;;;23.46;71.84;99402.41;5033016;28;20050;-8
2021/07/16 04:28:51;;;;;;;21.77;15.27;;;;;;;23.43;71.78;99391.94;5016338;28;20045;-8
2021/07/16 04:31:17;;;;;;;23.20;16.05;;;;;;;23.47;71.58;99393.44;5034223;28;20041;-8
2021/07/16 04:33:44;;;;;;;21.92;15.60;;;;;;;23.55;71.23;99407.09;5033436;28;20140;-8
2021/07/16 04:36:10;;;;;;;20.23;14.75;;;;;;;23.55;71.25;99396.44;5033839;28;20048;-8
2021/07/16 04:38:36;;;;;;;19.85;15.18;;;;;;;23.41;71.36;99386.72;5049151;28;20057;-8
2021/07/16 04:41:02;;;;;;;20.40;14.45;;;;;;;23.35;71.23;99378.25;5032801;28;20041;-8
2021/07/16 04:43:28;;;;;;;21.15;15.55;;;;;;;23.56;71.91;99411.50;5016239;28;20045;-8
2021/07/16 04:45:55;;;;;;;20.50;15.02;;;;;;;23.46;71.76;99384.56;5015334;28;20128;-8
2021/07/16 04:48:21;;;;;;;25.73;14.98;;;;;;;23.62;71.26;99402.22;5032456;28;20132;-8
2021/07/16 04:50:47;;;;;;;20.17;14.52;;;;;;;23.77;70.65;99411.84;5032655;28;20052;-8
2021/07/16 04:53:13;;;;;;;21.55;14.77;;;;;;;23.81;70.52;99390.28;5015311;28;20089;-8
2021/07/16 04:55:39;;;;;;;22.90;15.18;;;;;;;23.68;70.44;99379.59;5032160;28;20387;-8
2021/07/16 04:58:05;;;;;;;19.63;15.73;;;;;;;24.00;70.17;99416.56;5032656;28;20052;-8
2021/07/16 05:00:33;;;;;;;17.33;14.40;;;;;;;24.21;68.89;99404.41;5032597;28;20037;-8
2021/07/16 05:02:59;;;;;;;16.83;12.10;;;;;;;24.69;67.20;99405.50;5033502;28;20048;-8
2021/07/16 05:05:25;;;;;;;18.40;14.57;;;;;;;24.84;67.34;99398.22;5015895;28;20064;-8
2021/07/16 05:07:51;;;;;;;21.15;14.82;;;;;;;24.54;67.84;99394.94;5033890;28;20045;-8
2021/07/16 05:10:17;;;;;;;15.40;12.70;;;;;;;24.64;66.97;99396.97;5015807;28;20045;-8
2021/07/16 05:12:44;;;;;;;15.32;11.93;;;;;;;24.94;66.49;99408.09;5032213;28;20549;-8
2021/07/16 05:15:11;;;;;;;15.98;10.07;;;;;;;25.43;64.26;99414.34;5015573;28;20038;-8
2021/07/16 05:17:38;;;;;;;16.35;11.80;;;;;;;25.49;63.53;99383.56;4999205;28;20037;-8
2021/07/16 05:20:06;;;;;;;19.73;12.70;;;;;;;25.37;64.06;99379.13;5015552;28;20449;-8
2021/07/16 05:22:33;;;;;;;14.43;11.38;;;;;;;25.65;63.33;99398.47;5015516;28;20047;-8
2021/07/16 05:25:00;;;;;;;17.88;12.30;;;;;;;25.92;61.82;99411.53;5015404;28;20037;-8
2021/07/16 05:27:26;;;;;;;14.32;11.68;;;;;;;25.84;62.12;99419.28;5032098;28;20095;-8
2021/07/16 05:29:53;;;;;;;19.40;13.25;;;;;;;25.69;63.92;99406.13;5032123;28;20068;-8
2021/07/16 05:32:19;;;;;;;16.10;12.43;;;;;;;25.64;64.00;99410.13;5032100;28;20441;-8
2021/07/16 05:34:45;;;;;;;19.95;14.07;;;;;;;25.46;64.92;99425.75;5032878;28;20041;-8
2021/07/16 05:37:11;;;;;;;17.60;14.43;;;;;;;25.40;64.88;99413.72;5031470;28;20061;-8
2021/07/16 05:39:37;;;;;;;18.25;13.52;;;;;;;25.30;65.80;99402.78;5015258;28;20115;-8
2021/07/16 05:42:04;;;;;;;16.40;13.95;;;;;;;25.36;64.51;99396.19;5015252;28;20494;-8
2021/07/16 05:44:32;;;;;;;22.48;14.40;;;;;;;25.35;65.01;99410.53;5015587;28;20529;-8
2021/07/16 05:46:59;;;;;;;22.83;13.13;;;;;;;25.41;64.56;99386.00;5032242;28;20487;-8
2021/07/16 05:49:25;;;;;;;16.92;13.60;;;;;;;25.51;63.93;99389.63;5031164;28;20064;-8
2021/07/16 05:51:51;;;;;;;19.67;13.88;;;;;;;25.67;65.92;99420.59;5014484;28;20103;-8
2021/07/16 05:54:17;;;;;;;18.23;13.38;;;;;;;25.77;64.46;99416.25;5031256;28;20052;-7
2021/07/16 05:56:45;;;;;;;17.10;12.35;;;;;;;25.86;63.26;99391.41;5015551;28;20128;-8
2021/07/16 05:59:11;;;;;;;16.52;12.93;;;;;;;25.98;62.82;99412.88;5031425;28;20115;-8
2021/07/16 06:01:37;;;;;;;14.13;11.63;;;;;;;26.02;62.46;99403.63;5047831;28;20120;-8
2021/07/16 06:04:09;;;;;;;16.95;11.38;;;;;;;26.15;61.76;99388.34;5031807;28;20107;-8
2021/07/16 06:06:38;;;;;;;16.05;11.70;;;;;;;26.44;60.89;99422.69;5031548;28;20045;-8
2021/07/16 06:09:06;;;;;;;17.25;12.75;;;;;;;26.56;60.51;99421.69;5031194;28;20041;-8
2021/07/16 06:11:32;;;;;;;17.52;11.05;;;;;;;26.56;58.81;99399.41;5014658;28;20037;-8
2021/07/16 06:13:59;;;;;;;14.15;11.10;;;;;;;26.57;59.04;99393.91;5031190;28;20041;-8
2021/07/16 06:16:26;;;;;;;15.35;11.73;;;;;;;26.62;58.30;99398.91;5031214;28;20136;-8
2021/07/16 06:18:52;;;;;;;22.50;11.23;;;;;;;26.72;58.56;99397.19;5015320;28;20118;-8
2021/07/16 06:21:18;;;;;;;18.17;12.02;;;;;;;26.95;58.35;99418.63;5015134;28;20037;-8
2021/07/16 06:23:46;;;;;;;14.88;11.60;;;;;;;26.99;57.88;99401.28;5030618;28;20600;-8
2021/07/16 06:26:12;;;;;;;14.88;11.57;;;;;;;27.21;57.30;99413.78;5030439;28;20069;-8
2021/07/16 06:28:38;;;;;;;15.63;12.85;;;;;;;26.96;57.81;99398.88;5030270;28;20525;-8
2021/07/16 06:31:05;;;;;;;22.48;12.68;;;;;;;26.98;58.55;99410.31;5031483;28;20097;-8
2021/07/16 06:33:31;;;;;;;15.43;12.48;;;;;;;26.94;58.85;99408.00;5030291;28;20047;-8
2021/07/16 06:35:57;;;;;;;19.48;13.88;;;;;;;26.76;58.35;99395.13;5022726;28;20091;-8
2021/07/16 06:38:23;;;;;;;16.20;12.10;;;;;;;26.69;58.76;99396.59;5007409;28;20533;-8
2021/07/16 06:40:50;;;;;;;18.83;12.88;;;;;;;26.63;58.35;99386.34;5030786;28;20064;-8
2021/07/16 06:43:16;;;;;;;27.38;12.93;;;;;;;26.98;58.06;99391.53;5014769;28;20045;-8
2021/07/16 06:45:43;;;;;;;77.47;17.27;;;;;;;27.27;57.40;99384.72;5014537;28;20037;-8
2021/07/16 06:48:09;;;;;;;25.63;12.57;;;;;;;27.40;57.14;99396.16;5014223;28;20045;-8
2021/07/16 06:50:36;;;;;;;17.17;12.50;;;;;;;27.55;56.69;99399.38;5014682;28;20104;-7
2021/07/16 06:53:03;;;;;;;22.25;12.50;;;;;;;27.73;56.96;99399.66;5030693;28;20566;-7
2021/07/16 06:55:32;;;;;;;24.42;12.32;;;;;;;27.72;57.04;99384.50;5030986;28;20558;-8
2021/07/16 06:57:58;;;;;;;27.95;12.90;;;;;;;27.87;56.51;99390.38;5014218;28;20049;-8
2021/07/16 07:00:24;;;;;;;22.85;12.43;;;;;;;28.06;55.71;99384.31;5032095;28;20383;-8
2021/07/16 07:02:50;;;;;;;33.65;12.98;;;;;;;28.10;56.89;99399.16;5031015;28;20490;-8
2021/07/16 07:05:19;;;;;;;45.67;13.77;;;;;;;27.90;56.58;99403.56;5031391;28;20034;-8
2021/07/16 07:07:45;;;;;;;18.77;13.57;;;;;;;27.84;57.07;99394.19;4998274;28;20091;-8
2021/07/16 07:10:11;;;;;;;14.82;13.23;;;;;;;27.55;57.19;99383.28;5018006;28;20048;-8
2021/07/16 07:12:38;;;;;;;15.82;13.18;;;;;;;27.40;57.56;99399.69;5035487;28;20099;-8
2021/07/16 07:15:06;;;;;;;16.17;12.13;;;;;;;27.29;56.72;99390.81;5034602;28;20511;-8
2021/07/16 07:17:32;;;;;;;14.70;11.63;;;;;;;27.56;56.65;99417.16;5034710;28;20120;-8
2021/07/16 07:19:58;;;;;;;26.10;11.38;;;;;;;27.47;56.16;99389.28;5017598;28;20047;-8
2021/07/16 07:22:24;;;;;;;16.67;12.00;;;;;;;27.52;56.48;99380.84;5018033;28;20417;-8
2021/07/16 07:24:50;;;;;;;23.45;11.00;;;;;;;27.89;56.09;99405.38;5000056;28;20029;-8
2021/07/16 07:27:17;;;;;;;22.02;11.45;;;;;;;28.09;55.02;99383.19;5030561;28;20149;-9
2021/07/16 07:29:43;;;;;;;24.27;11.80;;;;;;;28.19;54.98;99382.25;5032637;28;20087;-9
2021/07/16 07:32:09;;;;;;;16.67;13.13;;;;;;;28.17;54.94;99384.22;5013268;28;20137;-9
2021/07/16 07:34:35;;;;;;;19.50;12.15;;;;;;;28.33;53.97;99375.66;5016450;28;20042;-9
2021/07/16 07:37:01;;;;;;;15.57;12.57;;;;;;;28.32;54.99;99402.69;5019682;28;20050;-9
2021/07/16 07:39:28;;;;;;;15.32;11.43;;;;;;;28.50;53.34;99392.97;5018893;28;20042;-9
2021/07/16 07:41:55;;;;;;;13.98;11.55;;;;;;;28.42;53.16;99391.94;5006035;28;20063;-9
2021/07/16 07:44:21;;;;;;;13.55;11.77;;;;;;;28.50;53.77;99392.97;5015381;28;20463;-9
2021/07/16 07:46:47;;;;;;;12.82;11.43;;;;;;;28.65;53.42;99404.22;5010395;28;20391;-9
2021/07/16 07:49:13;;;;;;;19.27;11.77;;;;;;;28.71;53.32;99376.78;5033691;28;20413;-9
2021/07/16 07:51:41;;;;;;;16.42;9.45;;;;;;;28.87;52.28;99392.38;4999157;28;20414;-9
2021/07/16 07:54:09;;;;;;;14.60;11.70;;;;;;;29.01;50.61;99390.28;5031935;28;20052;-9
2021/07/16 07:56:37;;;;;;;13.43;11.40;;;;;;;29.25;50.98;99407.84;5016740;28;20442;-9
2021/07/16 07:59:05;;;;;;;21.10;13.52;;;;;;;29.26;50.76;99405.00;5016552;28;20043;-9
2021/07/16 08:01:33;;;;;;;14.70;9.38;;;;;;;29.31;52.35;99399.25;5023485;28;20060;-9
2021/07/16 08:04:00;;;;;;;16.13;11.60;;;;;;;29.59;51.13;99410.97;5029951;28;20461;-9
2021/07/16 08:06:26;;;;;;;14.30;12.80;;;;;;;29.60;50.64;99388.44;5012651;28;20103;-9
2021/07/16 08:08:53;;;;;;;16.35;12.43;;;;;;;29.56;49.93;99376.25;4986593;28;20038;-9
2021/07/16 08:11:19;;;;;;;13.80;12.25;;;;;;;29.73;50.09;99411.53;5015537;28;20048;-9
2021/07/16 08:13:46;;;;;;;14.07;12.57;;;;;;;29.46;51.14;99395.09;5032501;28;20041;-9
2021/07/16 08:16:15;;;;;;;13.68;12.25;;;;;;;29.56;50.84;99396.97;5018055;28;20041;-8
2021/07/16 08:18:41;;;;;;;16.40;13.18;;;;;;;29.58;50.79;99389.56;5032364;28;20449;-8
2021/07/16 08:21:08;;;;;;;16.02;13.48;;;;;;;29.52;50.25;99391.84;5016987;28;20069;-8
2021/07/16 08:23:34;;;;;;;16.73;13.13;;;;;;;29.20;51.23;99398.38;5016959;28;20046;-8
2021/07/16 08:26:02;;;;;;;14.30;12.80;;;;;;;28.81;52.70;99392.06;5017817;28;20507;-8
2021/07/16 08:28:29;;;;;;;15.20;13.32;;;;;;;28.78;52.25;99395.91;5012734;28;20042;-8
2021/07/16 08:30:55;;;;;;;15.60;12.73;;;;;;;28.95;51.44;99380.91;5022807;28;20125;-8
2021/07/16 08:33:21;;;;;;;16.85;13.18;;;;;;;28.98;50.04;99404.88;5015590;28;20037;-8
2021/07/16 08:35:48;;;;;;;15.48;12.68;;;;;;;28.99;51.29;99411.91;4991898;28;20037;-8
2021/07/16 08:38:14;;;;;;;15.20;12.32;;;;;;;29.08;49.97;99393.25;5031565;28;20096;-9
2021/07/16 08:40:42;;;;;;;13.52;12.05;;;;;;;29.04;49.68;99390.00;5032053;28;20045;-9
2021/07/16 08:43:10;;;;;;;14.98;13.00;;;;;;;29.06;50.90;99388.03;5028537;28;20040;-9
2021/07/16 08:45:36;;;;;;;14.20;12.27;;;;;;;29.14;49.88;99382.78;4999709;28;20045;-9
2021/07/16 08:48:02;;;;;;;15.43;13.80;;;;;;;29.50;48.80;99393.84;5012057;28;20427;-9
2021/07/16 08:50:29;;;;;;;13.02;11.60;;;;;;;29.71;48.90;99398.19;5012626;28;20033;-9
2021/07/16 08:53:02;;;;;;;13.60;9.75;;;;;;;29.81;49.85;99390.09;5013293;28;20045;-9
2021/07/16 08:55:37;;;;;;;13.45;11.10;;;;;;;29.77;45.17;99400.31;5016003;28;20078;-9
2021/07/16 08:58:05;;;;;;;12.85;9.73;;;;;;;29.58;46.21;99368.91;5014338;28;20049;-9
2021/07/16 09:00:32;;;;;;;11.13;10.02;;;;;;;29.99;44.83;99406.41;5025802;28;20517;-9
2021/07/16 09:03:10;;;;;;;12.40;11.10;;;;;;;30.01;47.81;99374.75;5020792;28;20034;-9
2021/07/16 09:05:40;;;;;;;11.98;10.77;;;;;;;30.15;44.68;99392.31;5029193;28;20646;-9
2021/07/16 09:08:21;;;;;;;13.23;11.38;;;;;;;30.32;45.25;99398.75;5030683;28;20037;-10
2021/07/16 09:10:49;;;;;;;11.80;9.35;;;;;;;30.49;44.01;99397.16;5037080;28;20063;-9
2021/07/16 09:13:17;;;;;;;14.27;11.00;;;;;;;30.40;43.17;99398.84;5011240;28;20081;-9
2021/07/16 09:16:01;;;;;;;12.23;11.02;;;;;;;30.41;43.94;99403.25;5025534;28;20037;-7
2021/07/16 09:18:30;;;;;;;15.88;10.30;;;;;;;30.47;44.13;99391.91;5022786;28;20079;-8
2021/07/16 09:21:02;;;;;;;12.93;11.35;;;;;;;30.56;44.81;99395.56;5006633;28;20083;-9
2021/07/16 09:23:46;;;;;;;13.27;11.88;;;;;;;30.14;46.55;99383.38;5018462;28;20033;-9
2021/07/16 09:26:23;;;;;;;15.55;13.68;;;;;;;29.68;48.42;99393.09;5018224;28;20069;-9
2021/07/16 09:28:57;;;;;;;15.43;13.93;;;;;;;29.56;48.45;99386.19;5022142;28;20120;-9
2021/07/16 09:31:37;;;;;;;15.30;12.25;;;;;;;29.20;50.33;99384.91;5030854;28;20442;-9
2021/07/16 09:34:11;;;;;;;15.52;13.35;;;;;;;29.43;49.31;99386.50;5000428;28;20129;-8
2021/07/16 09:36:38;;;;;;;12.68;10.63;;;;;;;29.57;49.80;99377.09;5018422;28;20033;-8
2021/07/16 09:39:10;;;;;;;13.93;12.43;;;;;;;29.98;46.64;99396.63;5011710;28;20052;-8
2021/07/16 09:41:51;;;;;;;12.82;11.52;;;;;;;30.10;45.67;99390.03;5030919;28;20375;-9
2021/07/16 09:44:27;;;;;;;12.82;11.18;;;;;;;30.36;45.67;99394.75;5028622;28;20124;-8
2021/07/16 09:47:21;;;;;;;16.42;11.40;;;;;;;30.45;44.23;99380.38;5018389;28;20053;-8
2021/07/16 09:50:10;;;;;;;15.70;12.40;;;;;;;30.06;43.80;99371.63;5022835;28;20533;-8
2021/07/16 09:52:36;;;;;;;11.27;10.15;;;;;;;30.40;43.71;99396.16;5007943;28;20042;-8
2021/07/16 09:55:18;;;;;;;11.75;10.57;;;;;;;30.48;42.13;99380.13;4984829;28;20049;-8
2021/07/16 09:57:46;;;;;;;10.75;9.57;;;;;;;30.45;44.92;99383.06;5007925;28;20451;-7
2021/07/16 10:00:19;;;;;;;13.25;10.43;;;;;;;30.36;42.71;99389.38;5014962;28;20553;-8
2021/07/16 10:02:52;;;;;;;10.65;9.57;;;;;;;30.12;40.33;99374.56;5013459;28;20136;-7
2021/07/16 10:05:19;;;;;;;10.88;8.48;;;;;;;30.30;43.24;99369.25;5018324;28;20063;-8
2021/07/16 10:07:45;;;;;;;10.73;9.63;;;;;;;30.38;40.12;99370.34;5021684;28;20637;-8
2021/07/16 10:10:19;;;;;;;11.80;10.32;;;;;;;30.42;40.56;99364.50;5005030;28;20045;-9
2021/07/16 10:12:47;;;;;;;11.43;10.23;;;;;;;30.43;41.79;99349.16;5016115;28;20503;-9
2021/07/16 10:15:23;;;;;;;13.98;11.23;;;;;;;30.39;41.17;99348.63;5025744;28;20030;-9
2021/07/16 10:17:55;;;;;;;15.48;11.57;;;;;;;30.51;43.18;99363.63;5005689;28;20132;-13
2021/07/16 10:20:22;;;;;;;12.40;9.77;;;;;;;30.67;40.92;99362.97;5029832;28;20045;-12
2021/07/16 10:22:50;;;;;;;11.88;10.10;;;;;;;30.75;43.67;99364.06;5015051;28;20085;-12
2021/07/16 10:25:19;;;;;;;12.80;9.50;;;;;;;30.73;42.66;99357.97;5019828;28;20069;-13
2021/07/16 10:27:46;;;;;;;11.40;10.30;;;;;;;30.97;39.92;99365.47;5014937;28;20046;-13
2021/07/16 10:30:17;;;;;;;12.05;9.57;;;;;;;31.11;38.66;99361.44;5020297;28;20410;-13
2021/07/16 10:32:47;;;;;;;12.27;11.07;;;;;;;31.11;39.16;99362.25;5024897;28;20081;-12
2021/07/16 10:35:21;;;;;;;10.40;9.30;;;;;;;31.10;41.91;99338.13;5025355;28;20091;-13
2021/07/16 10:37:51;;;;;;;11.23;10.00;;;;;;;30.78;38.05;99345.72;5023167;28;20045;-12
2021/07/16 10:40:40;;;;;;;11.55;9.98;;;;;;;30.91;38.10;99350.75;5022540;28;20041;-13
2021/07/16 10:43:09;;;;;;;11.52;9.85;;;;;;;31.15;38.25;99341.22;5015894;28;20080;-13
2021/07/16 10:45:39;;;;;;;12.15;10.95;;;;;;;30.91;40.01;99349.88;5024180;28;20406;-13
2021/07/16 10:48:12;;;;;;;16.33;9.43;;;;;;;30.88;42.15;99345.63;5023386;28;20045;-13
2021/07/16 10:50:41;;;;;;;11.27;10.13;;;;;;;31.12;41.85;99336.09;5006288;28;20045;-12
2021/07/16 10:53:14;;;;;;;12.55;10.25;;;;;;;31.47;39.60;99337.06;5022469;28;20033;-13
2021/07/16 10:55:41;;;;;;;13.05;10.02;;;;;;;31.30;40.27;99338.78;5026505;28;20041;-13
2021/07/16 10:58:32;;;;;;;11.68;9.98;;;;;;;31.44;38.42;99329.28;5014294;28;20045;-13
2021/07/16 11:01:49;;;;;;;10.75;8.85;;;;;;;31.50;41.54;99315.16;5018794;28;20041;-14
2021/07/16 11:04:41;;;;;;;10.43;9.23;;;;;;;31.90;40.06;99319.13;5007711;28;20045;-13
2021/07/16 11:07:07;;;;;;;11.10;9.85;;;;;;;32.06;37.69;99314.78;5038895;28;20041;-13
2021/07/16 11:09:42;;;;;;;12.75;11.13;;;;;;;32.16;40.00;99310.97;5024415;28;20069;-13
2021/07/16 11:12:23;;;;;;;12.00;10.70;;;;;;;32.04;38.11;99319.53;5019107;28;20037;-13
2021/07/16 11:14:49;;;;;;;13.32;11.50;;;;;;;31.94;38.96;99319.63;5018379;28;20431;-12
2021/07/16 11:17:36;;;;;;;11.60;10.50;;;;;;;31.89;38.16;99314.72;5029080;28;20034;-13
2021/07/16 11:20:15;;;;;;;11.98;9.70;;;;;;;31.82;39.42;99309.13;5025946;28;20041;-12
2021/07/16 11:23:01;;;;;;;10.30;9.30;;;;;;;32.15;37.19;99305.69;5014210;28;20038;-12
2021/07/16 11:25:29;;;;;;;11.48;10.32;;;;;;;32.21;36.53;99309.66;5014719;28;20041;-13
2021/07/16 11:27:56;;;;;;;11.77;10.15;;;;;;;32.36;37.08;99299.91;5014110;28;20042;-13
2021/07/16 11:30:23;;;;;;;11.10;10.00;;;;;;;32.47;37.18;99301.44;5012997;28;20310;-8